sensor_id;sensor_type;location;lat;lon;timestamp;P1;durP1;ratioP1;P2;durP2;ratioP2
51374;SDS011;37465;52.738;4.752;2022-10-31T00:00:20;5.35;;;1.38;;
51374;SDS011;37465;52.738;4.752;2022-10-31T00:02:49;8.18;;;1.67;;
51374;SDS011;37465;52.738;4.752;2022-10-31T00:05:16;6.43;;;1.33;;
51374;SDS011;37465;52.738;4.752;2022-10-31T00:07:43;8.50;;;1.65;;
51374;SDS011;37465;52.738;4.752;2022-10-31T00:10:11;7.43;;;1.55;;
51374;SDS011;37465;52.738;4.752;2022-10-31T00:12:38;7.60;;;1.60;;
51374;SDS011;37465;52.738;4.752;2022-10-31T00:15:06;5.77;;;1.30;;
51374;SDS011;37465;52.738;4.752;2022-10-31T00:17:34;8.35;;;1.73;;
51374;SDS011;37465;52.738;4.752;2022-10-31T00:20:03;6.13;;;1.33;;
51374;SDS011;37465;52.738;4.752;2022-10-31T00:22:31;6.82;;;1.40;;
51374;SDS011;37465;52.738;4.752;2022-10-31T00:24:58;10.73;;;1.70;;
51374;SDS011;37465;52.738;4.752;2022-10-31T00:27:25;9.48;;;1.67;;
51374;SDS011;37465;52.738;4.752;2022-10-31T00:29:53;6.50;;;1.65;;
51374;SDS011;37465;52.738;4.752;2022-10-31T00:32:20;6.88;;;1.80;;
51374;SDS011;37465;52.738;4.752;2022-10-31T00:34:48;8.73;;;1.90;;
51374;SDS011;37465;52.738;4.752;2022-10-31T00:37:16;7.63;;;1.73;;
51374;SDS011;37465;52.738;4.752;2022-10-31T00:39:44;7.45;;;1.80;;
51374;SDS011;37465;52.738;4.752;2022-10-31T00:42:15;5.75;;;1.67;;
51374;SDS011;37465;52.738;4.752;2022-10-31T00:44:42;7.40;;;2.10;;
51374;SDS011;37465;52.738;4.752;2022-10-31T00:47:09;5.03;;;1.70;;
51374;SDS011;37465;52.738;4.752;2022-10-31T00:49:37;8.82;;;2.40;;
51374;SDS011;37465;52.738;4.752;2022-10-31T00:52:04;9.55;;;2.50;;
51374;SDS011;37465;52.738;4.752;2022-10-31T00:54:33;6.53;;;2.08;;
51374;SDS011;37465;52.738;4.752;2022-10-31T00:57:00;7.30;;;1.92;;
51374;SDS011;37465;52.738;4.752;2022-10-31T00:59:28;7.22;;;2.15;;
51374;SDS011;37465;52.738;4.752;2022-10-31T01:01:55;6.23;;;2.10;;
51374;SDS011;37465;52.738;4.752;2022-10-31T01:04:23;6.97;;;2.20;;
51374;SDS011;37465;52.738;4.752;2022-10-31T01:06:50;8.93;;;2.38;;
51374;SDS011;37465;52.738;4.752;2022-10-31T01:09:18;7.75;;;2.13;;
51374;SDS011;37465;52.738;4.752;2022-10-31T01:11:46;7.05;;;2.40;;
51374;SDS011;37465;52.738;4.752;2022-10-31T01:14:14;7.85;;;2.50;;
51374;SDS011;37465;52.738;4.752;2022-10-31T01:16:41;8.80;;;3.08;;
51374;SDS011;37465;52.738;4.752;2022-10-31T01:19:09;5.67;;;3.20;;
51374;SDS011;37465;52.738;4.752;2022-10-31T01:21:36;9.50;;;3.90;;
51374;SDS011;37465;52.738;4.752;2022-10-31T01:24:04;8.93;;;4.10;;
51374;SDS011;37465;52.738;4.752;2022-10-31T01:26:32;7.32;;;4.30;;
51374;SDS011;37465;52.738;4.752;2022-10-31T01:29:01;8.98;;;4.95;;
51374;SDS011;37465;52.738;4.752;2022-10-31T01:31:30;9.15;;;5.20;;
51374;SDS011;37465;52.738;4.752;2022-10-31T01:33:58;9.75;;;5.40;;
51374;SDS011;37465;52.738;4.752;2022-10-31T01:36:26;9.88;;;5.22;;
51374;SDS011;37465;52.738;4.752;2022-10-31T01:38:55;8.80;;;5.57;;
51374;SDS011;37465;52.738;4.752;2022-10-31T01:41:24;8.35;;;5.43;;
51374;SDS011;37465;52.738;4.752;2022-10-31T01:43:53;10.48;;;5.78;;
51374;SDS011;37465;52.738;4.752;2022-10-31T01:46:23;8.57;;;5.65;;
51374;SDS011;37465;52.738;4.752;2022-10-31T01:48:51;11.40;;;5.57;;
51374;SDS011;37465;52.738;4.752;2022-10-31T01:51:20;10.68;;;5.60;;
51374;SDS011;37465;52.738;4.752;2022-10-31T01:53:48;8.73;;;5.50;;
51374;SDS011;37465;52.738;4.752;2022-10-31T01:56:16;9.73;;;5.82;;
51374;SDS011;37465;52.738;4.752;2022-10-31T01:58:45;8.73;;;5.95;;
51374;SDS011;37465;52.738;4.752;2022-10-31T02:01:13;9.30;;;6.38;;
51374;SDS011;37465;52.738;4.752;2022-10-31T02:03:43;7.63;;;6.10;;
51374;SDS011;37465;52.738;4.752;2022-10-31T02:06:13;11.50;;;5.70;;
51374;SDS011;37465;52.738;4.752;2022-10-31T02:08:45;9.30;;;6.50;;
51374;SDS011;37465;52.738;4.752;2022-10-31T02:11:12;11.45;;;6.90;;
51374;SDS011;37465;52.738;4.752;2022-10-31T02:13:40;10.35;;;6.50;;
51374;SDS011;37465;52.738;4.752;2022-10-31T02:16:08;12.40;;;6.60;;
51374;SDS011;37465;52.738;4.752;2022-10-31T02:18:36;14.00;;;7.22;;
51374;SDS011;37465;52.738;4.752;2022-10-31T02:21:07;10.70;;;7.07;;
51374;SDS011;37465;52.738;4.752;2022-10-31T02:29:12;10.27;;;7.50;;
51374;SDS011;37465;52.738;4.752;2022-10-31T02:31:45;9.82;;;7.45;;
51374;SDS011;37465;52.738;4.752;2022-10-31T02:34:16;12.13;;;7.50;;
51374;SDS011;37465;52.738;4.752;2022-10-31T02:36:46;11.97;;;7.60;;
51374;SDS011;37465;52.738;4.752;2022-10-31T02:39:21;11.85;;;7.90;;
51374;SDS011;37465;52.738;4.752;2022-10-31T02:41:50;12.55;;;8.18;;
51374;SDS011;37465;52.738;4.752;2022-10-31T02:44:20;11.13;;;8.05;;
51374;SDS011;37465;52.738;4.752;2022-10-31T02:46:52;13.30;;;8.77;;
51374;SDS011;37465;52.738;4.752;2022-10-31T02:49:22;10.27;;;7.97;;
51374;SDS011;37465;52.738;4.752;2022-10-31T02:51:50;12.63;;;8.50;;
51374;SDS011;37465;52.738;4.752;2022-10-31T02:54:18;10.88;;;8.35;;
51374;SDS011;37465;52.738;4.752;2022-10-31T02:56:46;11.63;;;8.60;;
51374;SDS011;37465;52.738;4.752;2022-10-31T02:59:14;13.07;;;9.20;;
51374;SDS011;37465;52.738;4.752;2022-10-31T03:01:56;12.00;;;9.50;;
51374;SDS011;37465;52.738;4.752;2022-10-31T03:04:29;16.10;;;10.50;;
51374;SDS011;37465;52.738;4.752;2022-10-31T03:07:00;13.93;;;10.43;;
51374;SDS011;37465;52.738;4.752;2022-10-31T03:09:33;15.68;;;11.00;;
51374;SDS011;37465;52.738;4.752;2022-10-31T03:12:03;14.93;;;10.80;;
51374;SDS011;37465;52.738;4.752;2022-10-31T03:14:34;14.27;;;11.17;;
51374;SDS011;37465;52.738;4.752;2022-10-31T03:17:05;15.95;;;11.40;;
51374;SDS011;37465;52.738;4.752;2022-10-31T03:19:34;14.90;;;11.05;;
51374;SDS011;37465;52.738;4.752;2022-10-31T03:22:06;13.77;;;10.80;;
51374;SDS011;37465;52.738;4.752;2022-10-31T03:24:35;13.55;;;10.63;;
51374;SDS011;37465;52.738;4.752;2022-10-31T03:27:05;14.43;;;11.70;;
51374;SDS011;37465;52.738;4.752;2022-10-31T03:29:34;15.95;;;11.88;;
51374;SDS011;37465;52.738;4.752;2022-10-31T03:32:05;15.30;;;11.65;;
51374;SDS011;37465;52.738;4.752;2022-10-31T03:34:34;17.15;;;12.13;;
51374;SDS011;37465;52.738;4.752;2022-10-31T03:37:03;17.02;;;12.43;;
51374;SDS011;37465;52.738;4.752;2022-10-31T03:39:32;18.77;;;12.65;;
51374;SDS011;37465;52.738;4.752;2022-10-31T03:42:03;17.30;;;13.20;;
51374;SDS011;37465;52.738;4.752;2022-10-31T03:44:32;19.70;;;14.18;;
51374;SDS011;37465;52.738;4.752;2022-10-31T03:47:00;18.42;;;14.10;;
51374;SDS011;37465;52.738;4.752;2022-10-31T03:49:29;17.63;;;14.25;;
51374;SDS011;37465;52.738;4.752;2022-10-31T03:51:58;19.63;;;14.32;;
51374;SDS011;37465;52.738;4.752;2022-10-31T03:54:27;20.27;;;14.45;;
51374;SDS011;37465;52.738;4.752;2022-10-31T03:56:59;19.52;;;14.15;;
51374;SDS011;37465;52.738;4.752;2022-10-31T03:59:29;19.20;;;14.02;;
51374;SDS011;37465;52.738;4.752;2022-10-31T04:02:00;18.75;;;14.88;;
51374;SDS011;37465;52.738;4.752;2022-10-31T04:04:30;19.33;;;14.98;;
51374;SDS011;37465;52.738;4.752;2022-10-31T04:06:58;20.92;;;14.93;;
51374;SDS011;37465;52.738;4.752;2022-10-31T04:09:27;20.15;;;14.60;;
51374;SDS011;37465;52.738;4.752;2022-10-31T04:11:56;18.98;;;14.63;;
51374;SDS011;37465;52.738;4.752;2022-10-31T04:14:24;19.27;;;14.27;;
51374;SDS011;37465;52.738;4.752;2022-10-31T04:16:52;20.65;;;14.27;;
51374;SDS011;37465;52.738;4.752;2022-10-31T04:19:20;19.55;;;14.90;;
51374;SDS011;37465;52.738;4.752;2022-10-31T04:21:49;19.83;;;14.23;;
51374;SDS011;37465;52.738;4.752;2022-10-31T04:24:17;18.42;;;14.25;;
51374;SDS011;37465;52.738;4.752;2022-10-31T04:26:44;17.93;;;14.77;;
51374;SDS011;37465;52.738;4.752;2022-10-31T04:29:11;18.65;;;14.30;;
51374;SDS011;37465;52.738;4.752;2022-10-31T04:31:39;19.80;;;14.90;;
51374;SDS011;37465;52.738;4.752;2022-10-31T04:34:06;21.17;;;15.27;;
51374;SDS011;37465;52.738;4.752;2022-10-31T04:36:34;17.67;;;14.20;;
51374;SDS011;37465;52.738;4.752;2022-10-31T04:39:03;20.38;;;15.10;;
51374;SDS011;37465;52.738;4.752;2022-10-31T04:41:30;20.27;;;15.27;;
51374;SDS011;37465;52.738;4.752;2022-10-31T04:43:58;18.95;;;15.10;;
51374;SDS011;37465;52.738;4.752;2022-10-31T04:46:25;20.55;;;15.43;;
51374;SDS011;37465;52.738;4.752;2022-10-31T04:48:53;20.02;;;16.63;;
51374;SDS011;37465;52.738;4.752;2022-10-31T04:51:20;23.38;;;17.35;;
51374;SDS011;37465;52.738;4.752;2022-10-31T04:53:48;21.48;;;18.05;;
51374;SDS011;37465;52.738;4.752;2022-10-31T04:56:17;25.75;;;19.40;;
51374;SDS011;37465;52.738;4.752;2022-10-31T04:58:44;22.42;;;19.25;;
51374;SDS011;37465;52.738;4.752;2022-10-31T05:01:12;24.05;;;19.13;;
51374;SDS011;37465;52.738;4.752;2022-10-31T05:03:39;23.70;;;19.83;;
51374;SDS011;37465;52.738;4.752;2022-10-31T05:06:07;25.83;;;19.48;;
51374;SDS011;37465;52.738;4.752;2022-10-31T05:08:34;26.92;;;20.80;;
51374;SDS011;37465;52.738;4.752;2022-10-31T05:11:02;26.00;;;19.83;;
51374;SDS011;37465;52.738;4.752;2022-10-31T05:13:31;25.70;;;20.23;;
51374;SDS011;37465;52.738;4.752;2022-10-31T05:15:59;25.65;;;19.30;;
51374;SDS011;37465;52.738;4.752;2022-10-31T05:18:26;23.80;;;19.73;;
51374;SDS011;37465;52.738;4.752;2022-10-31T05:20:54;23.67;;;20.40;;
51374;SDS011;37465;52.738;4.752;2022-10-31T05:23:21;24.80;;;20.17;;
51374;SDS011;37465;52.738;4.752;2022-10-31T05:25:49;24.35;;;20.15;;
51374;SDS011;37465;52.738;4.752;2022-10-31T05:28:16;25.60;;;20.90;;
51374;SDS011;37465;52.738;4.752;2022-10-31T05:30:45;30.65;;;23.80;;
51374;SDS011;37465;52.738;4.752;2022-10-31T05:33:13;32.35;;;25.27;;
51374;SDS011;37465;52.738;4.752;2022-10-31T05:35:40;33.45;;;24.35;;
51374;SDS011;37465;52.738;4.752;2022-10-31T05:38:07;27.67;;;23.20;;
51374;SDS011;37465;52.738;4.752;2022-10-31T05:40:35;25.90;;;22.17;;
51374;SDS011;37465;52.738;4.752;2022-10-31T05:43:02;25.75;;;22.17;;
51374;SDS011;37465;52.738;4.752;2022-10-31T05:45:30;24.83;;;21.08;;
51374;SDS011;37465;52.738;4.752;2022-10-31T05:48:00;27.40;;;22.17;;
51374;SDS011;37465;52.738;4.752;2022-10-31T05:50:29;24.27;;;20.87;;
51374;SDS011;37465;52.738;4.752;2022-10-31T05:52:57;24.65;;;20.70;;
51374;SDS011;37465;52.738;4.752;2022-10-31T05:55:25;24.45;;;20.92;;
51374;SDS011;37465;52.738;4.752;2022-10-31T05:57:52;27.42;;;21.33;;
51374;SDS011;37465;52.738;4.752;2022-10-31T06:00:20;24.40;;;21.50;;
51374;SDS011;37465;52.738;4.752;2022-10-31T06:02:48;26.10;;;21.63;;
51374;SDS011;37465;52.738;4.752;2022-10-31T06:05:17;24.15;;;21.15;;
51374;SDS011;37465;52.738;4.752;2022-10-31T06:07:44;30.08;;;22.00;;
51374;SDS011;37465;52.738;4.752;2022-10-31T06:10:11;25.87;;;22.10;;
51374;SDS011;37465;52.738;4.752;2022-10-31T06:12:39;27.95;;;22.42;;
51374;SDS011;37465;52.738;4.752;2022-10-31T06:15:07;27.40;;;22.80;;
51374;SDS011;37465;52.738;4.752;2022-10-31T06:17:35;25.67;;;22.35;;
51374;SDS011;37465;52.738;4.752;2022-10-31T06:20:03;27.42;;;22.45;;
51374;SDS011;37465;52.738;4.752;2022-10-31T06:22:31;27.37;;;22.73;;
51374;SDS011;37465;52.738;4.752;2022-10-31T06:24:59;27.13;;;22.75;;
51374;SDS011;37465;52.738;4.752;2022-10-31T06:27:27;28.07;;;23.40;;
51374;SDS011;37465;52.738;4.752;2022-10-31T06:29:54;29.57;;;23.13;;
51374;SDS011;37465;52.738;4.752;2022-10-31T06:32:22;29.95;;;23.60;;
51374;SDS011;37465;52.738;4.752;2022-10-31T06:34:49;28.48;;;23.42;;
51374;SDS011;37465;52.738;4.752;2022-10-31T06:37:16;28.70;;;23.60;;
51374;SDS011;37465;52.738;4.752;2022-10-31T06:39:45;33.30;;;24.98;;
51374;SDS011;37465;52.738;4.752;2022-10-31T06:42:14;30.27;;;24.33;;
51374;SDS011;37465;52.738;4.752;2022-10-31T06:44:42;30.42;;;26.05;;
51374;SDS011;37465;52.738;4.752;2022-10-31T06:47:09;32.20;;;26.42;;
51374;SDS011;37465;52.738;4.752;2022-10-31T06:49:37;32.13;;;25.95;;
51374;SDS011;37465;52.738;4.752;2022-10-31T06:52:04;33.83;;;26.40;;
51374;SDS011;37465;52.738;4.752;2022-10-31T06:54:32;34.55;;;27.75;;
51374;SDS011;37465;52.738;4.752;2022-10-31T06:57:00;36.00;;;26.95;;
51374;SDS011;37465;52.738;4.752;2022-10-31T06:59:28;34.80;;;28.70;;
51374;SDS011;37465;52.738;4.752;2022-10-31T07:01:57;36.05;;;28.95;;
51374;SDS011;37465;52.738;4.752;2022-10-31T07:04:24;38.33;;;30.33;;
51374;SDS011;37465;52.738;4.752;2022-10-31T07:06:52;40.33;;;30.77;;
51374;SDS011;37465;52.738;4.752;2022-10-31T07:09:19;42.08;;;32.13;;
51374;SDS011;37465;52.738;4.752;2022-10-31T07:11:46;45.53;;;32.40;;
51374;SDS011;37465;52.738;4.752;2022-10-31T07:14:15;42.73;;;32.73;;
51374;SDS011;37465;52.738;4.752;2022-10-31T07:16:43;45.13;;;33.20;;
51374;SDS011;37465;52.738;4.752;2022-10-31T07:19:10;46.67;;;34.60;;
51374;SDS011;37465;52.738;4.752;2022-10-31T07:21:37;47.45;;;34.00;;
51374;SDS011;37465;52.738;4.752;2022-10-31T07:24:05;43.05;;;33.83;;
51374;SDS011;37465;52.738;4.752;2022-10-31T07:26:32;49.88;;;35.83;;
51374;SDS011;37465;52.738;4.752;2022-10-31T07:29:00;46.00;;;34.78;;
51374;SDS011;37465;52.738;4.752;2022-10-31T07:31:28;48.85;;;35.83;;
51374;SDS011;37465;52.738;4.752;2022-10-31T07:33:56;46.38;;;35.20;;
51374;SDS011;37465;52.738;4.752;2022-10-31T07:36:23;48.58;;;36.63;;
51374;SDS011;37465;52.738;4.752;2022-10-31T07:38:51;51.20;;;36.65;;
51374;SDS011;37465;52.738;4.752;2022-10-31T07:41:18;49.60;;;37.05;;
51374;SDS011;37465;52.738;4.752;2022-10-31T07:43:45;50.22;;;36.35;;
51374;SDS011;37465;52.738;4.752;2022-10-31T07:46:13;49.38;;;35.78;;
51374;SDS011;37465;52.738;4.752;2022-10-31T07:48:42;47.50;;;35.55;;
51374;SDS011;37465;52.738;4.752;2022-10-31T07:51:09;47.13;;;35.90;;
51374;SDS011;37465;52.738;4.752;2022-10-31T07:53:36;48.85;;;36.03;;
51374;SDS011;37465;52.738;4.752;2022-10-31T07:56:04;46.17;;;35.08;;
51374;SDS011;37465;52.738;4.752;2022-10-31T07:58:31;47.30;;;34.88;;
51374;SDS011;37465;52.738;4.752;2022-10-31T08:00:59;45.72;;;34.90;;
51374;SDS011;37465;52.738;4.752;2022-10-31T08:03:26;44.22;;;35.00;;
51374;SDS011;37465;52.738;4.752;2022-10-31T08:05:55;42.83;;;33.40;;
51374;SDS011;37465;52.738;4.752;2022-10-31T08:08:23;42.25;;;33.78;;
51374;SDS011;37465;52.738;4.752;2022-10-31T08:10:57;39.93;;;32.60;;
51374;SDS011;37465;52.738;4.752;2022-10-31T08:13:24;39.13;;;32.65;;
51374;SDS011;37465;52.738;4.752;2022-10-31T08:15:52;38.63;;;32.53;;
51374;SDS011;37465;52.738;4.752;2022-10-31T08:18:20;37.53;;;31.38;;
51374;SDS011;37465;52.738;4.752;2022-10-31T08:20:49;35.90;;;30.83;;
51374;SDS011;37465;52.738;4.752;2022-10-31T08:23:18;33.23;;;29.63;;
51374;SDS011;37465;52.738;4.752;2022-10-31T08:25:45;32.47;;;28.60;;
51374;SDS011;37465;52.738;4.752;2022-10-31T08:28:13;33.85;;;28.42;;
51374;SDS011;37465;52.738;4.752;2022-10-31T08:30:41;30.55;;;27.23;;
51374;SDS011;37465;52.738;4.752;2022-10-31T08:33:10;30.50;;;26.25;;
51374;SDS011;37465;52.738;4.752;2022-10-31T08:35:37;31.90;;;26.35;;
51374;SDS011;37465;52.738;4.752;2022-10-31T08:38:05;27.88;;;24.65;;
51374;SDS011;37465;52.738;4.752;2022-10-31T08:40:35;25.98;;;23.27;;
51374;SDS011;37465;52.738;4.752;2022-10-31T08:43:03;26.60;;;23.80;;
51374;SDS011;37465;52.738;4.752;2022-10-31T08:45:31;24.90;;;22.30;;
51374;SDS011;37465;52.738;4.752;2022-10-31T08:47:59;25.00;;;22.40;;
51374;SDS011;37465;52.738;4.752;2022-10-31T08:50:28;24.20;;;21.58;;
51374;SDS011;37465;52.738;4.752;2022-10-31T08:52:59;23.40;;;20.90;;
51374;SDS011;37465;52.738;4.752;2022-10-31T08:55:32;22.80;;;20.40;;
51374;SDS011;37465;52.738;4.752;2022-10-31T08:58:01;23.85;;;21.35;;
51374;SDS011;37465;52.738;4.752;2022-10-31T09:00:29;23.83;;;21.15;;
51374;SDS011;37465;52.738;4.752;2022-10-31T09:02:57;24.25;;;21.80;;
51374;SDS011;37465;52.738;4.752;2022-10-31T09:05:25;23.23;;;20.92;;
51374;SDS011;37465;52.738;4.752;2022-10-31T09:07:54;22.77;;;20.48;;
51374;SDS011;37465;52.738;4.752;2022-10-31T09:10:22;22.85;;;20.48;;
51374;SDS011;37465;52.738;4.752;2022-10-31T09:12:54;23.38;;;20.92;;
51374;SDS011;37465;52.738;4.752;2022-10-31T09:15:23;22.90;;;20.63;;
51374;SDS011;37465;52.738;4.752;2022-10-31T09:17:50;21.55;;;19.45;;
51374;SDS011;37465;52.738;4.752;2022-10-31T09:20:18;21.53;;;19.43;;
51374;SDS011;37465;52.738;4.752;2022-10-31T09:22:45;21.60;;;19.48;;
51374;SDS011;37465;52.738;4.752;2022-10-31T09:25:13;21.10;;;18.90;;
51374;SDS011;37465;52.738;4.752;2022-10-31T09:27:40;20.38;;;18.33;;
51374;SDS011;37465;52.738;4.752;2022-10-31T09:30:08;20.10;;;18.00;;
51374;SDS011;37465;52.738;4.752;2022-10-31T09:32:37;19.98;;;17.92;;
51374;SDS011;37465;52.738;4.752;2022-10-31T09:35:05;19.02;;;16.92;;
51374;SDS011;37465;52.738;4.752;2022-10-31T09:37:33;19.00;;;17.00;;
51374;SDS011;37465;52.738;4.752;2022-10-31T09:40:00;19.92;;;17.88;;
51374;SDS011;37465;52.738;4.752;2022-10-31T09:42:35;18.88;;;16.90;;
51374;SDS011;37465;52.738;4.752;2022-10-31T09:45:06;18.08;;;16.20;;
51374;SDS011;37465;52.738;4.752;2022-10-31T09:47:40;17.73;;;15.73;;
51374;SDS011;37465;52.738;4.752;2022-10-31T09:50:13;17.40;;;15.50;;
51374;SDS011;37465;52.738;4.752;2022-10-31T09:52:43;16.90;;;15.20;;
51374;SDS011;37465;52.738;4.752;2022-10-31T09:55:14;16.50;;;14.70;;
51374;SDS011;37465;52.738;4.752;2022-10-31T09:57:42;16.52;;;14.75;;
51374;SDS011;37465;52.738;4.752;2022-10-31T10:00:13;18.45;;;14.90;;
51374;SDS011;37465;52.738;4.752;2022-10-31T10:02:43;15.93;;;14.23;;
51374;SDS011;37465;52.738;4.752;2022-10-31T10:05:12;16.40;;;14.80;;
51374;SDS011;37465;52.738;4.752;2022-10-31T10:07:41;16.93;;;14.90;;
51374;SDS011;37465;52.738;4.752;2022-10-31T10:10:13;15.20;;;13.60;;
51374;SDS011;37465;52.738;4.752;2022-10-31T10:12:48;15.48;;;13.88;;
51374;SDS011;37465;52.738;4.752;2022-10-31T10:15:27;15.20;;;13.63;;
51374;SDS011;37465;52.738;4.752;2022-10-31T10:18:00;14.73;;;13.23;;
51374;SDS011;37465;52.738;4.752;2022-10-31T10:20:31;15.07;;;12.82;;
51374;SDS011;37465;52.738;4.752;2022-10-31T10:23:05;14.25;;;12.60;;
51374;SDS011;37465;52.738;4.752;2022-10-31T10:25:37;14.48;;;12.98;;
51374;SDS011;37465;52.738;4.752;2022-10-31T10:28:08;13.60;;;12.20;;
51374;SDS011;37465;52.738;4.752;2022-10-31T10:30:39;14.65;;;13.10;;
51374;SDS011;37465;52.738;4.752;2022-10-31T10:33:10;14.20;;;12.80;;
51374;SDS011;37465;52.738;4.752;2022-10-31T10:35:39;13.80;;;12.38;;
51374;SDS011;37465;52.738;4.752;2022-10-31T10:38:10;13.60;;;12.20;;
51374;SDS011;37465;52.738;4.752;2022-10-31T10:40:40;13.82;;;12.43;;
51374;SDS011;37465;52.738;4.752;2022-10-31T10:43:15;14.43;;;12.93;;
51374;SDS011;37465;52.738;4.752;2022-10-31T10:45:50;15.77;;;12.80;;
51374;SDS011;37465;52.738;4.752;2022-10-31T10:48:41;13.77;;;12.37;;
51374;SDS011;37465;52.738;4.752;2022-10-31T10:51:10;15.07;;;12.95;;
51374;SDS011;37465;52.738;4.752;2022-10-31T10:54:05;15.25;;;12.95;;
51374;SDS011;37465;52.738;4.752;2022-10-31T10:56:42;14.55;;;12.68;;
51374;SDS011;37465;52.738;4.752;2022-10-31T10:59:13;14.32;;;12.50;;
51374;SDS011;37465;52.738;4.752;2022-10-31T11:01:41;16.13;;;12.38;;
51374;SDS011;37465;52.738;4.752;2022-10-31T11:04:18;15.03;;;12.77;;
51374;SDS011;37465;52.738;4.752;2022-10-31T11:06:56;14.40;;;12.68;;
51374;SDS011;37465;52.738;4.752;2022-10-31T11:09:23;14.10;;;12.10;;
51374;SDS011;37465;52.738;4.752;2022-10-31T11:11:51;15.43;;;12.25;;
51374;SDS011;37465;52.738;4.752;2022-10-31T11:14:18;14.90;;;12.80;;
51374;SDS011;37465;52.738;4.752;2022-10-31T11:16:47;16.17;;;13.13;;
51374;SDS011;37465;52.738;4.752;2022-10-31T11:19:17;16.15;;;13.02;;
51374;SDS011;37465;52.738;4.752;2022-10-31T11:21:46;15.13;;;12.32;;
51374;SDS011;37465;52.738;4.752;2022-10-31T11:24:20;14.90;;;12.57;;
51374;SDS011;37465;52.738;4.752;2022-10-31T11:26:49;14.30;;;12.30;;
51374;SDS011;37465;52.738;4.752;2022-10-31T11:29:19;15.82;;;12.95;;
51374;SDS011;37465;52.738;4.752;2022-10-31T11:31:48;14.95;;;12.07;;
51374;SDS011;37465;52.738;4.752;2022-10-31T11:34:29;14.30;;;12.20;;
51374;SDS011;37465;52.738;4.752;2022-10-31T11:36:59;15.52;;;12.00;;
51374;SDS011;37465;52.738;4.752;2022-10-31T11:39:28;16.27;;;12.98;;
51374;SDS011;37465;52.738;4.752;2022-10-31T11:41:59;15.20;;;13.57;;
51374;SDS011;37465;52.738;4.752;2022-10-31T11:44:33;16.02;;;13.55;;
51374;SDS011;37465;52.738;4.752;2022-10-31T11:47:01;15.45;;;12.68;;
51374;SDS011;37465;52.738;4.752;2022-10-31T11:49:31;14.50;;;12.32;;
51374;SDS011;37465;52.738;4.752;2022-10-31T11:52:01;14.13;;;12.07;;
51374;SDS011;37465;52.738;4.752;2022-10-31T11:54:30;11.93;;;10.27;;
51374;SDS011;37465;52.738;4.752;2022-10-31T11:56:59;12.95;;;10.60;;
51374;SDS011;37465;52.738;4.752;2022-10-31T11:59:28;10.95;;;9.35;;
51374;SDS011;37465;52.738;4.752;2022-10-31T12:01:56;10.85;;;8.90;;
51374;SDS011;37465;52.738;4.752;2022-10-31T12:07:11;10.02;;;7.82;;
51374;SDS011;37465;52.738;4.752;2022-10-31T12:09:38;8.65;;;7.20;;
51374;SDS011;37465;52.738;4.752;2022-10-31T12:12:10;7.40;;;6.07;;
51374;SDS011;37465;52.738;4.752;2022-10-31T12:14:41;7.43;;;6.43;;
51374;SDS011;37465;52.738;4.752;2022-10-31T12:17:12;6.78;;;6.07;;
51374;SDS011;37465;52.738;4.752;2022-10-31T12:19:42;8.23;;;5.77;;
51374;SDS011;37465;52.738;4.752;2022-10-31T12:22:18;8.20;;;5.53;;
51374;SDS011;37465;52.738;4.752;2022-10-31T12:24:50;6.83;;;5.30;;
51374;SDS011;37465;52.738;4.752;2022-10-31T12:27:24;6.93;;;5.55;;
51374;SDS011;37465;52.738;4.752;2022-10-31T12:29:58;5.43;;;4.93;;
51374;SDS011;37465;52.738;4.752;2022-10-31T12:32:30;5.75;;;5.05;;
51374;SDS011;37465;52.738;4.752;2022-10-31T12:35:10;5.10;;;4.20;;
51374;SDS011;37465;52.738;4.752;2022-10-31T12:37:47;5.50;;;4.00;;
51374;SDS011;37465;52.738;4.752;2022-10-31T12:40:20;4.78;;;3.60;;
51374;SDS011;37465;52.738;4.752;2022-10-31T12:42:54;4.32;;;3.35;;
51374;SDS011;37465;52.738;4.752;2022-10-31T12:45:30;4.07;;;3.00;;
51374;SDS011;37465;52.738;4.752;2022-10-31T12:48:05;4.63;;;2.85;;
51374;SDS011;37465;52.738;4.752;2022-10-31T12:50:39;4.32;;;3.38;;
51374;SDS011;37465;52.738;4.752;2022-10-31T12:53:15;4.13;;;3.35;;
51374;SDS011;37465;52.738;4.752;2022-10-31T12:55:48;5.10;;;3.10;;
51374;SDS011;37465;52.738;4.752;2022-10-31T12:58:20;5.10;;;2.90;;
51374;SDS011;37465;52.738;4.752;2022-10-31T13:00:50;5.13;;;3.40;;
51374;SDS011;37465;52.738;4.752;2022-10-31T13:03:20;5.93;;;3.72;;
51374;SDS011;37465;52.738;4.752;2022-10-31T13:05:51;6.03;;;4.90;;
51374;SDS011;37465;52.738;4.752;2022-10-31T13:08:21;6.30;;;5.50;;
51374;SDS011;37465;52.738;4.752;2022-10-31T13:10:50;6.25;;;5.53;;
51374;SDS011;37465;52.738;4.752;2022-10-31T13:13:19;11.20;;;5.80;;
51374;SDS011;37465;52.738;4.752;2022-10-31T13:15:49;7.03;;;5.88;;
51374;SDS011;37465;52.738;4.752;2022-10-31T13:18:19;6.97;;;6.10;;
51374;SDS011;37465;52.738;4.752;2022-10-31T13:20:49;7.07;;;6.38;;
51374;SDS011;37465;52.738;4.752;2022-10-31T13:23:23;8.27;;;7.30;;
51374;SDS011;37465;52.738;4.752;2022-10-31T13:26:15;8.25;;;7.20;;
51374;SDS011;37465;52.738;4.752;2022-10-31T13:28:44;8.90;;;7.97;;
51374;SDS011;37465;52.738;4.752;2022-10-31T13:31:13;9.38;;;7.75;;
51374;SDS011;37465;52.738;4.752;2022-10-31T13:33:44;9.23;;;7.20;;
51374;SDS011;37465;52.738;4.752;2022-10-31T13:36:18;8.02;;;7.22;;
51374;SDS011;37465;52.738;4.752;2022-10-31T13:38:50;9.48;;;8.48;;
51374;SDS011;37465;52.738;4.752;2022-10-31T13:41:22;10.63;;;9.05;;
51374;SDS011;37465;52.738;4.752;2022-10-31T13:43:58;12.25;;;9.70;;
51374;SDS011;37465;52.738;4.752;2022-10-31T13:46:34;10.65;;;9.40;;
51374;SDS011;37465;52.738;4.752;2022-10-31T13:49:01;11.88;;;10.18;;
51374;SDS011;37465;52.738;4.752;2022-10-31T13:51:30;11.07;;;9.80;;
51374;SDS011;37465;52.738;4.752;2022-10-31T13:54:00;10.38;;;9.25;;
51374;SDS011;37465;52.738;4.752;2022-10-31T13:56:27;10.23;;;8.93;;
51374;SDS011;37465;52.738;4.752;2022-10-31T13:59:00;9.80;;;8.20;;
51374;SDS011;37465;52.738;4.752;2022-10-31T14:01:28;11.23;;;8.65;;
51374;SDS011;37465;52.738;4.752;2022-10-31T14:03:56;9.82;;;8.50;;
51374;SDS011;37465;52.738;4.752;2022-10-31T14:06:40;9.20;;;8.20;;
51374;SDS011;37465;52.738;4.752;2022-10-31T14:09:18;10.68;;;7.95;;
51374;SDS011;37465;52.738;4.752;2022-10-31T14:11:46;11.80;;;9.40;;
51374;SDS011;37465;52.738;4.752;2022-10-31T14:14:14;12.15;;;8.98;;
51374;SDS011;37465;52.738;4.752;2022-10-31T14:16:43;11.85;;;9.32;;
51374;SDS011;37465;52.738;4.752;2022-10-31T14:19:14;11.77;;;9.50;;
51374;SDS011;37465;52.738;4.752;2022-10-31T14:21:43;11.63;;;10.13;;
51374;SDS011;37465;52.738;4.752;2022-10-31T14:24:15;11.88;;;10.50;;
51374;SDS011;37465;52.738;4.752;2022-10-31T14:26:54;13.27;;;10.07;;
51374;SDS011;37465;52.738;4.752;2022-10-31T14:29:23;12.65;;;10.77;;
51374;SDS011;37465;52.738;4.752;2022-10-31T14:31:54;13.98;;;11.07;;
51374;SDS011;37465;52.738;4.752;2022-10-31T14:34:23;13.70;;;11.40;;
51374;SDS011;37465;52.738;4.752;2022-10-31T14:37:05;15.30;;;12.23;;
51374;SDS011;37465;52.738;4.752;2022-10-31T14:39:37;15.23;;;12.43;;
51374;SDS011;37465;52.738;4.752;2022-10-31T14:42:13;14.60;;;12.40;;
51374;SDS011;37465;52.738;4.752;2022-10-31T14:44:50;14.95;;;11.10;;
51374;SDS011;37465;52.738;4.752;2022-10-31T14:47:23;12.88;;;10.48;;
51374;SDS011;37465;52.738;4.752;2022-10-31T14:50:04;11.07;;;9.53;;